createdAt,value
2018-08-11T00:00:44.750Z,99.90
2018-08-11T00:03:12.922Z,99.90
2018-08-11T00:05:41.073Z,99.90
2018-08-11T00:08:09.212Z,99.90
2018-08-11T00:10:38.029Z,99.90
2018-08-11T00:13:06.615Z,99.90
2018-08-11T00:15:34.781Z,99.90
2018-08-11T00:18:03.347Z,99.90
2018-08-11T00:20:31.543Z,99.90
2018-08-11T00:22:59.731Z,99.90
2018-08-11T00:25:28.566Z,99.90
2018-08-11T00:27:56.699Z,99.90
2018-08-11T00:30:24.842Z,99.90
2018-08-11T00:32:53.337Z,99.90
2018-08-11T00:35:21.478Z,99.90
2018-08-11T00:37:49.614Z,99.90
2018-08-11T00:40:19.304Z,99.90
2018-08-11T00:42:48.464Z,99.90
2018-08-11T00:45:17.513Z,99.90
2018-08-11T00:47:45.734Z,99.90
2018-08-11T00:50:17.178Z,99.90
2018-08-11T00:52:45.354Z,99.90
2018-08-11T00:55:14.427Z,99.90
2018-08-11T00:57:42.573Z,99.90
2018-08-11T01:00:13.991Z,99.90
2018-08-11T01:02:42.154Z,99.90
2018-08-11T01:05:12.570Z,99.90
2018-08-11T01:07:41.516Z,99.90
2018-08-11T01:10:10.646Z,99.90
2018-08-11T01:12:39.014Z,99.90
2018-08-11T01:15:09.575Z,99.90
2018-08-11T01:17:38.065Z,99.90
2018-08-11T01:20:07.325Z,99.90
2018-08-11T01:22:35.451Z,99.90
2018-08-11T01:25:04.228Z,99.90
2018-08-11T01:27:32.642Z,99.90
2018-08-11T01:30:00.735Z,99.90
2018-08-11T01:32:28.802Z,99.90
2018-08-11T01:34:56.963Z,99.90
2018-08-11T01:37:25.708Z,99.90
2018-08-11T01:39:54.472Z,99.90
2018-08-11T01:42:23.640Z,99.90
2018-08-11T01:44:52.431Z,99.90
2018-08-11T01:47:21.086Z,99.90
2018-08-11T01:49:49.485Z,99.90
2018-08-11T01:52:18.219Z,99.90
2018-08-11T01:54:46.645Z,99.90
2018-08-11T01:57:15.397Z,99.90
2018-08-11T01:59:44.223Z,99.90
2018-08-11T02:02:12.751Z,99.90
2018-08-11T02:04:41.231Z,99.90
2018-08-11T02:07:09.729Z,99.90
2018-08-11T02:09:38.131Z,99.90
2018-08-11T02:12:06.603Z,99.90
2018-08-11T02:14:35.139Z,99.90
2018-08-11T02:17:03.579Z,99.90
2018-08-11T02:19:31.739Z,99.90
2018-08-11T02:21:59.830Z,99.90
2018-08-11T02:24:28.303Z,99.90
2018-08-11T02:26:56.889Z,99.90
2018-08-11T02:29:25.094Z,99.90
2018-08-11T02:31:53.687Z,99.90
2018-08-11T02:34:22.336Z,99.90
2018-08-11T02:36:50.602Z,99.90
2018-08-11T02:39:19.016Z,99.90
2018-08-11T02:41:47.458Z,99.90
2018-08-11T02:44:15.975Z,99.90
2018-08-11T02:46:44.531Z,99.90
2018-08-11T02:49:12.633Z,99.90
2018-08-11T02:51:41.481Z,99.90
2018-08-11T02:54:10.284Z,99.90
2018-08-11T02:56:38.917Z,99.90
2018-08-11T02:59:07.397Z,99.90
2018-08-11T03:01:36.330Z,99.90
2018-08-11T03:04:04.784Z,99.90
2018-08-11T03:06:33.323Z,99.90
2018-08-11T03:09:01.762Z,99.90
2018-08-11T03:11:30.194Z,99.90
2018-08-11T03:13:58.669Z,99.90
2018-08-11T03:16:27.581Z,99.90
2018-08-11T03:18:56.447Z,99.90
2018-08-11T03:21:24.956Z,99.90
2018-08-11T03:23:53.061Z,99.90
2018-08-11T03:26:21.882Z,99.90
2018-08-11T03:28:50.884Z,99.90
2018-08-11T03:31:19.758Z,99.90
2018-08-11T03:33:48.538Z,99.90
2018-08-11T03:36:16.994Z,99.90
2018-08-11T03:38:45.475Z,99.90
2018-08-11T03:41:13.958Z,99.90
2018-08-11T03:43:42.458Z,99.90
2018-08-11T03:46:10.984Z,99.90
2018-08-11T03:48:39.562Z,99.90
2018-08-11T03:51:08.026Z,99.90
2018-08-11T03:53:36.491Z,99.90
2018-08-11T03:56:04.667Z,99.90
2018-08-11T03:58:33.594Z,99.90
2018-08-11T04:01:02.277Z,99.90
2018-08-11T04:03:30.695Z,99.90
2018-08-11T04:05:59.463Z,99.90
2018-08-11T04:08:27.899Z,99.90
2018-08-11T04:10:56.696Z,99.90
2018-08-11T04:13:25.764Z,99.90
2018-08-11T04:15:54.834Z,99.90
2018-08-11T04:18:23.245Z,99.90
2018-08-11T04:20:52.002Z,99.90
2018-08-11T04:23:20.468Z,99.90
2018-08-11T04:25:49.225Z,99.90
2018-08-11T04:28:17.357Z,99.90
2018-08-11T04:30:46.017Z,99.90
2018-08-11T04:33:14.158Z,99.90
2018-08-11T04:35:42.937Z,99.90
2018-08-11T04:38:11.319Z,99.90
2018-08-11T04:40:39.410Z,99.90
2018-08-11T04:43:07.557Z,99.90
2018-08-11T04:45:35.993Z,99.90
2018-08-11T04:48:04.641Z,99.90
2018-08-11T04:50:33.055Z,99.90
2018-08-11T04:53:01.867Z,99.90
2018-08-11T04:55:30.726Z,99.90
2018-08-11T04:57:59.191Z,99.90
2018-08-11T05:00:28.011Z,99.90
2018-08-11T05:02:56.766Z,99.90
2018-08-11T05:05:25.246Z,99.90
2018-08-11T05:07:53.762Z,99.90
2018-08-11T05:10:22.829Z,99.90
2018-08-11T05:12:51.590Z,99.90
2018-08-11T05:15:20.009Z,99.90
2018-08-11T05:17:48.433Z,99.90
2018-08-11T05:20:17.313Z,99.90
2018-08-11T05:22:45.749Z,99.90
2018-08-11T05:25:14.589Z,99.90
2018-08-11T05:27:43.363Z,99.90
2018-08-11T05:30:11.490Z,99.90
2018-08-11T05:32:40.252Z,99.90
2018-08-11T05:35:08.708Z,99.90
2018-08-11T05:37:37.507Z,99.90
2018-08-11T05:40:05.676Z,99.90
2018-08-11T05:42:34.466Z,99.90
2018-08-11T05:45:02.927Z,99.90
2018-08-11T05:47:31.689Z,99.90
2018-08-11T05:50:00.135Z,99.90
2018-08-11T05:52:28.920Z,99.90
2018-08-11T05:54:57.320Z,99.90
2018-08-11T05:57:25.426Z,99.90
2018-08-11T05:59:53.844Z,99.90
2018-08-11T06:02:22.623Z,99.90
2018-08-11T06:04:51.042Z,99.90
2018-08-11T06:07:19.126Z,99.90
2018-08-11T06:09:47.901Z,99.90
2018-08-11T06:12:16.746Z,99.90
2018-08-11T06:14:45.485Z,99.90
2018-08-11T06:17:13.992Z,99.90
2018-08-11T06:19:42.801Z,99.90
2018-08-11T06:22:11.230Z,99.90
2018-08-11T06:24:40.030Z,99.90
2018-08-11T06:27:08.476Z,99.90
2018-08-11T06:29:36.565Z,99.90
2018-08-11T06:32:04.949Z,99.90
2018-08-11T06:34:33.479Z,99.90
2018-08-11T06:37:01.578Z,99.90
2018-08-11T06:39:30.028Z,99.90
2018-08-11T06:41:58.086Z,99.90
2018-08-11T06:44:26.599Z,99.90
2018-08-11T06:46:55.357Z,99.90
2018-08-11T06:49:24.088Z,99.90
2018-08-11T06:51:52.198Z,99.90
2018-08-11T06:54:21.023Z,99.90
2018-08-11T06:56:49.487Z,99.90
2018-08-11T06:59:18.288Z,99.90
2018-08-11T07:01:46.699Z,99.90
2018-08-11T07:04:15.504Z,99.90
2018-08-11T07:06:43.735Z,99.90
2018-08-11T07:09:12.281Z,99.90
2018-08-11T07:11:40.738Z,99.90
2018-08-11T07:14:09.593Z,99.90
2018-08-11T07:16:38.408Z,99.90
2018-08-11T07:19:07.282Z,99.90
2018-08-11T07:21:35.449Z,99.90
2018-08-11T07:24:03.958Z,99.90
2018-08-11T07:26:32.139Z,99.90
2018-08-11T07:29:01.147Z,99.20
2018-08-11T07:31:29.674Z,94.80
2018-08-11T07:33:58.101Z,92.60
2018-08-11T07:36:26.262Z,90.70
2018-08-11T07:38:55.160Z,90.10
2018-08-11T07:41:24.270Z,88.60
2018-08-11T07:43:52.365Z,86.60
2018-08-11T07:46:21.403Z,87.20
2018-08-11T07:48:49.877Z,87.00
2018-08-11T07:51:18.998Z,88.30
2018-08-11T07:53:47.511Z,89.90
2018-08-11T07:56:15.972Z,90.70
2018-08-11T07:58:44.407Z,90.80
2018-08-11T08:01:12.498Z,90.30
2018-08-11T08:03:41.123Z,90.20
2018-08-11T08:06:09.181Z,89.70
2018-08-11T08:08:37.593Z,89.00
2018-08-11T08:11:05.874Z,87.90
2018-08-11T08:13:34.749Z,87.90
2018-08-11T08:16:03.691Z,86.20
2018-08-11T08:18:32.170Z,87.20
2018-08-11T08:21:01.025Z,86.20
2018-08-11T08:23:29.499Z,85.80
2018-08-11T08:25:58.000Z,84.40
2018-08-11T08:28:26.147Z,84.00
2018-08-11T08:30:54.980Z,82.80
2018-08-11T08:33:23.461Z,81.60
2018-08-11T08:35:52.242Z,82.00
2018-08-11T08:38:21.077Z,82.70
2018-08-11T08:40:49.919Z,81.60
2018-08-11T08:43:18.049Z,81.50
2018-08-11T08:45:46.172Z,81.10
2018-08-11T08:48:14.285Z,81.70
2018-08-11T08:50:42.436Z,80.60
2018-08-11T08:53:10.934Z,78.90
2018-08-11T08:55:39.829Z,77.90
2018-08-11T08:58:07.915Z,77.20
2018-08-11T09:00:36.361Z,74.90
2018-08-11T09:03:04.824Z,73.30
2018-08-11T09:05:33.274Z,73.90
2018-08-11T09:08:02.050Z,74.50
2018-08-11T09:10:30.893Z,76.30
2018-08-11T09:12:59.034Z,76.10
2018-08-11T09:15:27.304Z,76.60
2018-08-11T09:17:55.781Z,76.90
2018-08-11T09:20:24.264Z,75.90
2018-08-11T09:22:53.435Z,74.80
2018-08-11T09:25:21.431Z,73.70
2018-08-11T09:27:50.214Z,73.70
2018-08-11T09:30:18.694Z,74.00
2018-08-11T09:32:47.110Z,72.00
2018-08-11T09:35:15.545Z,69.30
2018-08-11T09:37:44.435Z,67.90
2018-08-11T09:40:12.556Z,66.80
2018-08-11T09:42:40.997Z,66.00
2018-08-11T09:45:09.243Z,66.80
2018-08-11T09:47:38.105Z,65.30
2018-08-11T09:50:06.262Z,63.50
2018-08-11T09:52:35.056Z,63.60
2018-08-11T09:55:03.592Z,62.90
2018-08-11T09:57:32.138Z,64.30
2018-08-11T10:00:00.895Z,66.60
2018-08-11T10:02:29.826Z,67.20
2018-08-11T10:04:58.318Z,66.90
2018-08-11T10:07:26.936Z,67.70
2018-08-11T10:09:55.703Z,67.90
2018-08-11T10:12:23.825Z,67.00
2018-08-11T10:14:52.278Z,67.10
2018-08-11T10:17:21.502Z,69.90
2018-08-11T10:19:50.295Z,70.90
2018-08-11T10:22:18.360Z,72.10
2018-08-11T10:24:46.814Z,71.80
2018-08-11T10:27:15.576Z,72.60
2018-08-11T10:29:44.860Z,72.90
2018-08-11T10:32:13.823Z,71.80
2018-08-11T10:34:41.967Z,70.10
2018-08-11T10:37:10.742Z,66.70
2018-08-11T10:39:39.229Z,65.90
2018-08-11T10:42:07.979Z,66.20
2018-08-11T10:44:36.288Z,68.40
2018-08-11T10:47:04.586Z,67.30
2018-08-11T10:49:32.970Z,66.50
2018-08-11T10:52:01.577Z,65.80
2018-08-11T10:54:30.414Z,67.30
2018-08-11T10:56:58.844Z,69.00
2018-08-11T10:59:27.016Z,69.00
2018-08-11T11:01:55.780Z,70.00
2018-08-11T11:04:24.292Z,70.70
2018-08-11T11:06:53.149Z,70.70
2018-08-11T11:09:21.686Z,71.20
2018-08-11T11:11:50.244Z,71.80
2018-08-11T11:14:18.866Z,72.20
2018-08-11T11:16:48.279Z,71.90
2018-08-11T11:19:16.749Z,69.60
2018-08-11T11:21:44.890Z,66.00
2018-08-11T11:24:13.745Z,65.60
2018-08-11T11:26:42.240Z,62.80
2018-08-11T11:29:11.095Z,60.20
2018-08-11T11:31:39.575Z,56.40
2018-08-11T11:34:07.980Z,53.40
2018-08-11T11:36:36.085Z,53.00
2018-08-11T11:39:07.201Z,52.10
2018-08-11T11:41:39.533Z,50.90
2018-08-11T11:44:08.459Z,52.20
2018-08-11T11:46:37.531Z,49.40
2018-08-11T11:49:06.064Z,47.40
2018-08-11T11:51:34.834Z,47.60
2018-08-11T11:54:03.278Z,45.20
2018-08-11T11:56:31.755Z,46.30
2018-08-11T11:58:59.862Z,48.90
2018-08-11T12:01:28.677Z,49.20
2018-08-11T12:03:56.819Z,48.90
2018-08-11T12:06:25.906Z,49.00
2018-08-11T12:08:54.632Z,47.30
2018-08-11T12:11:23.045Z,45.60
2018-08-11T12:13:51.539Z,43.20
2018-08-11T12:16:20.318Z,42.90
2018-08-11T12:18:48.751Z,42.00
2018-08-11T12:21:17.490Z,43.90
2018-08-11T12:23:46.382Z,45.70
2018-08-11T12:26:15.197Z,47.90
2018-08-11T12:28:44.070Z,49.50
2018-08-11T12:31:12.582Z,49.90
2018-08-11T12:33:41.549Z,49.50
2018-08-11T12:36:10.081Z,47.80
2018-08-11T12:38:38.870Z,47.50
2018-08-11T12:41:07.402Z,45.00
2018-08-11T12:43:36.250Z,43.00
2018-08-11T12:46:04.874Z,40.50
2018-08-11T12:48:33.949Z,40.00
2018-08-11T12:51:02.427Z,39.60
2018-08-11T12:53:30.917Z,38.20
2018-08-11T12:55:59.544Z,39.20
2018-08-11T12:58:28.006Z,36.50
2018-08-11T13:00:56.189Z,36.90
2018-08-11T13:03:25.024Z,37.80
2018-08-11T13:05:53.819Z,40.90
2018-08-11T13:08:22.801Z,42.40
2018-08-11T13:10:51.188Z,41.10
2018-08-11T13:13:19.973Z,40.10
2018-08-11T13:15:48.828Z,38.30
2018-08-11T13:18:17.028Z,38.70
2018-08-11T13:20:45.511Z,38.70
2018-08-11T13:23:13.851Z,38.20
2018-08-11T13:25:42.039Z,38.60
2018-08-11T13:28:10.862Z,35.50
2018-08-11T13:30:39.548Z,35.50
2018-08-11T13:33:08.050Z,37.80
2018-08-11T13:35:36.188Z,38.60
2018-08-11T13:38:04.877Z,39.40
2018-08-11T13:40:33.663Z,41.20
2018-08-11T13:43:02.404Z,41.60
2018-08-11T13:45:30.598Z,42.50
2018-08-11T13:47:59.200Z,42.80
2018-08-11T13:50:27.634Z,42.50
2018-08-11T13:52:56.090Z,40.10
2018-08-11T13:55:24.943Z,38.70
2018-08-11T13:57:53.491Z,38.60
2018-08-11T14:00:22.313Z,37.40
2018-08-11T14:02:50.712Z,38.20
2018-08-11T14:05:25.396Z,38.50
2018-08-11T14:07:54.158Z,37.90
2018-08-11T14:10:22.329Z,38.30
2018-08-11T14:12:50.771Z,37.20
2018-08-11T14:15:20.243Z,38.20
2018-08-11T14:17:48.314Z,38.40
2018-08-11T14:20:16.816Z,38.70
2018-08-11T14:22:45.068Z,38.20
2018-08-11T14:25:13.481Z,38.00
2018-08-11T14:27:41.947Z,38.20
2018-08-11T14:30:11.044Z,38.40
2018-08-11T14:32:40.045Z,38.20
2018-08-11T14:35:08.771Z,38.70
2018-08-11T14:37:37.149Z,38.80
2018-08-11T14:40:07.100Z,39.90
2018-08-11T14:42:35.495Z,40.90
2018-08-11T14:45:04.508Z,41.40
2018-08-11T14:47:33.256Z,42.40
2018-08-11T14:50:01.752Z,42.80
2018-08-11T14:52:30.535Z,42.50
2018-08-11T14:54:58.928Z,42.60
2018-08-11T14:57:27.560Z,42.60
2018-08-11T14:59:56.331Z,43.10
2018-08-11T15:02:25.152Z,43.70
2018-08-11T15:04:56.119Z,43.50
2018-08-11T15:07:24.791Z,43.40
2018-08-11T15:09:53.409Z,43.90
2018-08-11T15:12:21.943Z,43.40
2018-08-11T15:14:50.539Z,42.70
2018-08-11T15:17:18.801Z,43.40
2018-08-11T15:19:47.694Z,43.40
2018-08-11T15:22:16.471Z,44.10
2018-08-11T15:24:45.263Z,43.70
2018-08-11T15:27:13.770Z,43.20
2018-08-11T15:29:42.742Z,43.60
2018-08-11T15:32:11.225Z,44.10
2018-08-11T15:34:39.991Z,44.20
2018-08-11T15:37:08.497Z,43.80
2018-08-11T15:39:37.034Z,43.50
2018-08-11T15:42:05.353Z,43.50
2018-08-11T15:44:34.218Z,43.30
2018-08-11T15:47:02.694Z,43.70
2018-08-11T15:49:30.769Z,43.70
2018-08-11T15:51:58.900Z,43.70
2018-08-11T15:54:27.434Z,44.50
2018-08-11T15:56:56.076Z,44.40
2018-08-11T15:59:24.557Z,44.00
2018-08-11T16:01:52.668Z,43.60
2018-08-11T16:04:21.589Z,43.70
2018-08-11T16:06:50.375Z,44.10
2018-08-11T16:09:18.447Z,44.30
2018-08-11T16:11:46.579Z,44.20
2018-08-11T16:14:15.079Z,44.40
2018-08-11T16:16:43.171Z,44.30
2018-08-11T16:19:11.642Z,44.70
2018-08-11T16:21:40.075Z,44.80
2018-08-11T16:24:08.526Z,45.20
2018-08-11T16:26:37.043Z,45.10
2018-08-11T16:29:05.538Z,45.50
2018-08-11T16:31:33.999Z,45.60
2018-08-11T16:34:02.755Z,45.80
2018-08-11T16:36:31.429Z,45.70
2018-08-11T16:38:59.689Z,45.70
2018-08-11T16:41:28.205Z,45.90
2018-08-11T16:43:56.753Z,45.80
2018-08-11T16:46:25.216Z,45.50
2018-08-11T16:48:53.822Z,45.40
2018-08-11T16:51:21.902Z,46.00
2018-08-11T16:53:50.382Z,46.60
2018-08-11T16:56:18.976Z,46.70
2018-08-11T16:58:47.431Z,46.80
2018-08-11T17:01:16.245Z,47.10
2018-08-11T17:03:44.764Z,47.60
2018-08-11T17:06:13.207Z,47.40
2018-08-11T17:08:42.004Z,47.60
2018-08-11T17:11:10.514Z,47.60
2018-08-11T17:13:39.091Z,47.50
2018-08-11T17:16:07.543Z,48.20
2018-08-11T17:18:36.371Z,48.20
2018-08-11T17:21:05.187Z,48.50
2018-08-11T17:23:33.377Z,48.70
2018-08-11T17:26:02.210Z,49.40
2018-08-11T17:28:30.682Z,50.10
2018-08-11T17:30:58.750Z,50.70
2018-08-11T17:33:27.363Z,51.40
2018-08-11T17:35:55.466Z,52.10
2018-08-11T17:41:04.041Z,52.80
2018-08-11T17:43:32.620Z,53.10
2018-08-11T17:46:01.409Z,54.30
2018-08-11T17:48:29.968Z,54.30
2018-08-11T17:50:58.102Z,54.00
2018-08-11T17:53:27.004Z,54.00
2018-08-11T17:55:55.505Z,54.60
2018-08-11T17:58:24.341Z,54.80
2018-08-11T18:00:52.845Z,55.00
2018-08-11T18:03:21.662Z,55.20
2018-08-11T18:05:50.469Z,55.50
2018-08-11T18:08:18.941Z,55.50
2018-08-11T18:10:47.342Z,55.50
2018-08-11T18:13:16.160Z,56.10
2018-08-11T18:15:44.955Z,56.40
2018-08-11T18:18:13.065Z,56.50
2018-08-11T18:20:41.544Z,57.00
2018-08-11T18:23:10.371Z,57.30
2018-08-11T18:25:39.135Z,57.90
2018-08-11T18:28:07.964Z,58.10
2018-08-11T18:30:36.178Z,58.80
2018-08-11T18:33:04.581Z,59.20
2018-08-11T18:35:33.039Z,59.50
2018-08-11T18:38:01.553Z,60.10
2018-08-11T18:40:30.064Z,60.60
2018-08-11T18:42:58.699Z,61.50
2018-08-11T18:45:27.155Z,62.20
2018-08-11T18:47:55.959Z,62.10
2018-08-11T18:50:24.454Z,62.10
2018-08-11T18:52:52.939Z,62.70
2018-08-11T18:55:21.145Z,62.00
2018-08-11T18:57:49.692Z,62.70
2018-08-11T19:00:18.305Z,63.30
2018-08-11T19:02:47.260Z,63.10
2018-08-11T19:05:15.599Z,63.10
2018-08-11T19:07:44.509Z,62.80
2018-08-11T19:10:12.603Z,62.50
2018-08-11T19:12:40.806Z,63.00
2018-08-11T19:15:11.490Z,63.50
2018-08-11T19:17:39.749Z,63.20
2018-08-11T19:20:10.080Z,63.10
2018-08-11T19:22:38.247Z,63.50
2018-08-11T19:25:07.620Z,63.50
2018-08-11T19:27:36.172Z,63.10
2018-08-11T19:30:06.679Z,62.90
2018-08-11T19:32:35.194Z,63.10
2018-08-11T19:35:03.713Z,63.30
2018-08-11T19:37:32.254Z,63.20
2018-08-11T19:40:00.802Z,63.60
2018-08-11T19:42:29.335Z,63.50
2018-08-11T19:44:57.873Z,63.70
2018-08-11T19:47:26.357Z,63.80
2018-08-11T19:49:55.164Z,64.30
2018-08-11T19:52:23.241Z,64.70
2018-08-11T19:54:51.342Z,65.00
2018-08-11T19:57:19.899Z,65.20
2018-08-11T19:59:48.697Z,65.70
2018-08-11T20:02:17.135Z,66.10
2018-08-11T20:04:45.759Z,66.20
2018-08-11T20:07:14.227Z,66.70
2018-08-11T20:09:42.990Z,66.50
2018-08-11T20:12:11.697Z,67.00
2018-08-11T20:14:40.012Z,67.20
2018-08-11T20:17:08.238Z,67.50
2018-08-11T20:19:36.708Z,67.80
2018-08-11T20:22:04.781Z,68.40
2018-08-11T20:24:32.845Z,68.50
2018-08-11T20:27:01.301Z,68.80
2018-08-11T20:29:30.206Z,69.20
2018-08-11T20:31:59.608Z,69.70
2018-08-11T20:34:28.108Z,69.60
2018-08-11T20:36:56.309Z,69.90
2018-08-11T20:39:24.811Z,70.20
2018-08-11T20:41:53.150Z,70.50
2018-08-11T20:44:21.330Z,70.70
2018-08-11T20:46:49.575Z,71.20
2018-08-11T20:49:18.343Z,71.50
2018-08-11T20:51:47.175Z,71.80
2018-08-11T20:54:15.378Z,72.20
2018-08-11T20:56:43.580Z,72.40
2018-08-11T20:59:12.747Z,72.70
2018-08-11T21:01:41.379Z,72.90
2018-08-11T21:04:10.300Z,73.00
2018-08-11T21:06:38.791Z,73.40
2018-08-11T21:09:09.252Z,73.70
2018-08-11T21:11:37.912Z,74.40
2018-08-11T21:14:06.866Z,75.00
2018-08-11T21:16:35.098Z,75.10
2018-08-11T21:19:03.995Z,75.60
2018-08-11T21:21:32.532Z,76.00
2018-08-11T21:24:01.083Z,76.40
2018-08-11T21:26:29.252Z,77.00
2018-08-11T21:28:58.025Z,77.50
2018-08-11T21:31:26.133Z,77.90
2018-08-11T21:33:54.584Z,78.60
2018-08-11T21:36:23.311Z,79.30
2018-08-11T21:38:51.920Z,79.80
2018-08-11T21:41:20.319Z,80.50
2018-08-11T21:43:48.437Z,81.10
2018-08-11T21:46:17.059Z,81.60
2018-08-11T21:48:45.183Z,82.00
2018-08-11T21:51:13.311Z,82.70
2018-08-11T21:53:41.799Z,83.40
2018-08-11T21:56:10.185Z,84.10
2018-08-11T21:58:38.369Z,84.70
2018-08-11T22:01:13.170Z,85.90
2018-08-11T22:03:42.205Z,87.00
2018-08-11T22:06:10.466Z,88.50
2018-08-11T22:08:38.889Z,89.60
2018-08-11T22:11:07.783Z,90.50
2018-08-11T22:13:35.908Z,91.20
2018-08-11T22:16:05.312Z,92.00
2018-08-11T22:18:33.932Z,93.10
2018-08-11T22:21:02.526Z,93.70
2018-08-11T22:23:30.730Z,94.50
2018-08-11T22:25:59.348Z,95.10
2018-08-11T22:28:27.719Z,96.30
2018-08-11T22:30:56.360Z,96.90
2018-08-11T22:33:24.525Z,97.60
2018-08-11T22:35:53.431Z,98.40
2018-08-11T22:38:22.213Z,99.10
2018-08-11T22:40:51.175Z,99.90
2018-08-11T22:43:20.343Z,99.90
2018-08-11T22:45:48.771Z,99.90
2018-08-11T22:48:17.201Z,99.90
2018-08-11T22:50:45.410Z,99.90
2018-08-11T22:53:14.191Z,99.90
2018-08-11T22:55:42.861Z,99.90
2018-08-11T22:58:11.587Z,99.90
2018-08-11T23:00:40.123Z,99.90
2018-08-11T23:03:08.513Z,99.90
2018-08-11T23:05:37.311Z,99.90
2018-08-11T23:08:05.578Z,99.90
2018-08-11T23:10:34.100Z,99.90
2018-08-11T23:13:02.571Z,99.90
2018-08-11T23:15:30.690Z,99.90
2018-08-11T23:17:58.994Z,99.90
2018-08-11T23:20:27.453Z,99.90
2018-08-11T23:22:56.341Z,99.90
2018-08-11T23:25:24.786Z,99.90
2018-08-11T23:27:53.413Z,99.90
2018-08-11T23:30:22.060Z,99.90
2018-08-11T23:32:50.825Z,99.90
2018-08-11T23:35:19.941Z,99.90
2018-08-11T23:37:48.061Z,99.90
2018-08-11T23:40:16.295Z,99.90
2018-08-11T23:42:44.557Z,99.90
2018-08-11T23:45:14.379Z,99.90
2018-08-11T23:47:43.273Z,99.90
2018-08-11T23:50:12.551Z,99.90
2018-08-11T23:52:42.345Z,99.90
2018-08-11T23:55:12.316Z,99.90
2018-08-11T23:57:40.838Z,99.90
